createdAt,value
2023-04-15T00:01:51.083Z,99988.44
2023-04-15T00:04:17.647Z,99983.03
2023-04-15T00:06:51.383Z,99978.59
2023-04-15T00:09:17.775Z,99971.13
2023-04-15T00:11:44.174Z,99971.25
2023-04-15T00:14:10.690Z,99967.94
2023-04-15T00:16:37.253Z,99960.19
2023-04-15T00:19:03.759Z,99950.63
2023-04-15T00:21:30.693Z,99953.53
2023-04-15T00:23:57.363Z,99951.28
2023-04-15T00:26:23.782Z,99950.19
2023-04-15T00:28:50.208Z,99952.97
2023-04-15T00:31:16.826Z,99949.91
2023-04-15T00:33:43.646Z,99948.94
2023-04-15T00:36:11.166Z,99943.75
2023-04-15T00:38:38.388Z,99949.91
2023-04-15T00:41:05.260Z,99944.25
2023-04-15T00:43:31.663Z,99950.00
2023-04-15T00:45:59.530Z,99946.63
2023-04-15T00:48:27.894Z,99942.06
2023-04-15T00:50:54.425Z,99945.56
2023-04-15T00:53:20.830Z,99950.22
2023-04-15T00:55:47.231Z,99937.56
2023-04-15T00:58:14.111Z,99938.91
2023-04-15T01:00:41.470Z,99941.13
2023-04-15T01:03:08.790Z,99942.38
2023-04-15T01:05:36.515Z,99938.56
2023-04-15T01:08:03.624Z,99941.22
2023-04-15T01:10:31.711Z,99949.47
2023-04-15T01:12:58.370Z,99935.81
2023-04-15T01:15:25.073Z,99933.78
2023-04-15T01:17:51.643Z,99930.91
2023-04-15T01:20:18.429Z,99925.44
2023-04-15T01:22:45.380Z,99931.56
2023-04-15T01:25:17.489Z,99926.66
2023-04-15T01:27:44.154Z,99924.34
2023-04-15T01:30:11.511Z,99926.38
2023-04-15T01:32:38.271Z,99928.38
2023-04-15T01:35:05.027Z,99931.25
2023-04-15T01:37:32.341Z,99925.81
2023-04-15T01:39:58.768Z,99920.72
2023-04-15T01:42:25.318Z,99915.75
2023-04-15T01:44:51.908Z,99912.50
2023-04-15T01:47:18.557Z,99897.00
2023-04-15T01:49:45.016Z,99911.94
2023-04-15T01:52:11.443Z,99903.56
2023-04-15T01:54:37.830Z,99902.19
2023-04-15T01:57:05.514Z,99914.50
2023-04-15T01:59:32.118Z,99901.94
2023-04-15T02:01:58.766Z,99893.25
2023-04-15T02:04:25.218Z,99882.84
2023-04-15T02:06:51.642Z,99897.00
2023-04-15T02:09:18.046Z,99893.91
2023-04-15T02:11:44.852Z,99909.09
2023-04-15T02:14:11.477Z,99899.09
2023-04-15T02:16:37.944Z,99897.28
2023-04-15T02:19:04.449Z,99899.22
2023-04-15T02:21:30.941Z,99898.47
2023-04-15T02:23:57.452Z,99906.63
2023-04-15T02:26:25.301Z,99896.56
2023-04-15T02:28:51.768Z,99902.53
2023-04-15T02:31:18.356Z,99901.56
2023-04-15T02:33:45.317Z,99898.50
2023-04-15T02:36:12.394Z,99901.34
2023-04-15T02:38:40.746Z,99902.91
2023-04-15T02:41:07.159Z,99902.72
2023-04-15T02:43:33.568Z,99902.72
2023-04-15T02:46:00.062Z,99905.47
2023-04-15T02:48:27.006Z,99909.28
2023-04-15T02:50:53.473Z,99898.91
2023-04-15T02:53:20.730Z,99903.16
2023-04-15T02:55:47.172Z,99907.81
2023-04-15T02:58:13.622Z,99907.72
2023-04-15T03:00:40.178Z,99914.28
2023-04-15T03:03:07.039Z,99912.56
2023-04-15T03:05:33.681Z,99923.50
2023-04-15T03:08:01.301Z,99916.72
2023-04-15T03:10:27.921Z,99916.06
2023-04-15T03:12:54.326Z,99921.81
2023-04-15T03:15:21.143Z,99917.13
2023-04-15T03:17:49.497Z,99911.53
2023-04-15T03:20:16.947Z,99912.59
2023-04-15T03:22:43.544Z,99907.81
2023-04-15T03:25:10.076Z,99903.13
2023-04-15T03:27:36.665Z,99902.72
2023-04-15T03:30:03.348Z,99899.13
2023-04-15T03:32:29.836Z,99893.38
2023-04-15T03:34:56.285Z,99899.53
2023-04-15T03:37:22.721Z,99901.00
2023-04-15T03:39:49.163Z,99892.66
2023-04-15T03:42:15.707Z,99892.75
2023-04-15T03:44:42.204Z,99894.56
2023-04-15T03:47:08.616Z,99894.47
2023-04-15T03:49:35.659Z,99894.13
2023-04-15T03:52:02.097Z,99894.03
2023-04-15T03:54:28.555Z,99905.16
2023-04-15T03:56:54.974Z,99894.78
2023-04-15T03:59:21.451Z,99894.47
2023-04-15T04:01:47.937Z,99898.38
2023-04-15T04:04:14.579Z,99885.66
2023-04-15T04:06:41.390Z,99902.72
2023-04-15T04:09:07.808Z,99892.13
2023-04-15T04:11:34.322Z,99885.28
2023-04-15T04:14:00.745Z,99888.19
2023-04-15T04:16:27.249Z,99886.19
2023-04-15T04:18:53.784Z,99895.59
2023-04-15T04:21:21.312Z,99894.25
2023-04-15T04:23:47.815Z,99892.78
2023-04-15T04:26:14.299Z,99904.13
2023-04-15T04:28:40.969Z,99902.25
2023-04-15T04:31:07.842Z,99891.47
2023-04-15T04:33:34.492Z,99905.78
2023-04-15T04:36:00.947Z,99902.72
2023-04-15T04:38:27.378Z,99899.44
2023-04-15T04:40:53.991Z,99898.47
2023-04-15T04:43:20.423Z,99896.78
2023-04-15T04:45:47.462Z,99893.50
2023-04-15T04:48:13.911Z,99890.94
2023-04-15T04:50:40.389Z,99899.50
2023-04-15T04:53:06.838Z,99879.50
2023-04-15T04:55:33.284Z,99877.69
2023-04-15T04:57:59.683Z,99871.97
2023-04-15T05:00:26.186Z,99878.97
2023-04-15T05:02:52.698Z,99866.66
2023-04-15T05:05:19.201Z,99880.03
2023-04-15T05:07:45.666Z,99873.34
2023-04-15T05:10:12.106Z,99875.22
2023-04-15T05:12:38.671Z,99874.31
2023-04-15T05:15:06.432Z,99869.84
2023-04-15T05:17:35.142Z,99869.44
2023-04-15T05:20:02.511Z,99868.06
2023-04-15T05:22:29.088Z,99869.00
2023-04-15T05:24:55.940Z,99869.00
2023-04-15T05:27:23.976Z,99878.03
2023-04-15T05:29:50.544Z,99881.28
2023-04-15T05:32:17.398Z,99883.72
2023-04-15T05:34:43.886Z,99874.53
2023-04-15T05:37:10.440Z,99882.03
2023-04-15T05:39:36.898Z,99884.28
2023-04-15T05:42:03.497Z,99889.03
2023-04-15T05:44:30.059Z,99885.75
2023-04-15T05:46:56.860Z,99892.75
2023-04-15T05:49:23.523Z,99890.81
2023-04-15T05:51:50.047Z,99896.53
2023-04-15T05:54:19.283Z,99896.59
2023-04-15T05:56:46.542Z,99895.09
2023-04-15T05:59:13.111Z,99902.63
2023-04-15T06:01:40.032Z,99900.41
2023-04-15T06:04:06.809Z,99895.50
2023-04-15T06:06:33.385Z,99898.69
2023-04-15T06:08:59.934Z,99901.34
2023-04-15T06:11:27.273Z,99902.00
2023-04-15T06:13:53.719Z,99897.59
2023-04-15T06:16:20.200Z,99897.75
2023-04-15T06:18:46.616Z,99900.19
2023-04-15T06:21:13.128Z,99904.84
2023-04-15T06:23:41.150Z,99917.66
2023-04-15T06:26:07.940Z,99907.72
2023-04-15T06:28:34.396Z,99911.41
2023-04-15T06:31:01.921Z,99920.22
2023-04-15T06:33:28.523Z,99914.59
2023-04-15T06:35:55.915Z,99915.75
2023-04-15T06:38:22.382Z,99930.28
2023-04-15T06:40:48.836Z,99919.81
2023-04-15T06:43:15.387Z,99928.16
2023-04-15T06:45:41.880Z,99928.63
2023-04-15T06:48:08.346Z,99931.53
2023-04-15T06:50:35.981Z,99925.19
2023-04-15T06:53:03.062Z,99933.06
2023-04-15T06:55:29.622Z,99928.44
2023-04-15T06:57:56.265Z,99927.31
2023-04-15T07:00:22.809Z,99921.59
2023-04-15T07:02:49.321Z,99933.28
2023-04-15T07:05:16.008Z,99926.91
2023-04-15T07:07:42.715Z,99930.72
2023-04-15T07:10:09.904Z,99930.16
2023-04-15T07:12:36.538Z,99929.03
2023-04-15T07:15:03.695Z,99936.56
2023-04-15T07:17:30.269Z,99927.97
2023-04-15T07:19:56.991Z,99932.94
2023-04-15T07:22:23.439Z,99935.59
2023-04-15T07:24:49.885Z,99920.28
2023-04-15T07:27:17.459Z,99928.25
2023-04-15T07:29:43.860Z,99933.78
2023-04-15T07:32:10.825Z,99936.34
2023-04-15T07:34:37.947Z,99932.09
2023-04-15T07:37:04.427Z,99930.97
2023-04-15T07:39:31.114Z,99935.38
2023-04-15T07:41:59.043Z,99937.91
2023-04-15T07:44:26.967Z,99938.56
2023-04-15T07:46:53.769Z,99935.59
2023-04-15T07:49:21.308Z,99942.28
2023-04-15T07:51:49.067Z,99938.03
2023-04-15T07:54:15.748Z,99945.25
2023-04-15T07:56:42.192Z,99947.38
2023-04-15T07:59:09.859Z,99953.53
2023-04-15T08:01:36.789Z,99941.09
2023-04-15T08:04:03.832Z,99947.75
2023-04-15T08:06:30.849Z,99954.50
2023-04-15T08:08:57.547Z,99954.03
2023-04-15T08:11:24.542Z,99960.66
2023-04-15T08:13:52.058Z,99971.25
2023-04-15T08:16:21.273Z,99956.34
2023-04-15T08:18:48.864Z,99966.94
2023-04-15T08:21:16.370Z,99962.66
2023-04-15T08:23:43.710Z,99962.16
2023-04-15T08:26:10.262Z,99963.69
2023-04-15T08:28:39.201Z,99970.63
2023-04-15T08:31:06.309Z,99959.28
2023-04-15T08:33:32.853Z,99963.16
2023-04-15T08:35:59.254Z,99968.34
2023-04-15T08:38:25.974Z,99969.72
2023-04-15T08:40:52.528Z,99974.94
2023-04-15T08:43:26.284Z,99966.66
2023-04-15T08:46:08.642Z,99981.56
2023-04-15T08:48:38.402Z,99990.88
2023-04-15T08:51:05.223Z,99977.28
2023-04-15T08:53:31.723Z,99998.09
2023-04-15T08:56:03.341Z,99985.66
2023-04-15T08:58:30.081Z,99986.50
2023-04-15T09:00:57.460Z,99985.47
2023-04-15T09:03:24.899Z,99995.50
2023-04-15T09:05:53.251Z,99987.13
2023-04-15T09:08:19.869Z,99984.19
2023-04-15T09:10:46.414Z,99982.38
2023-04-15T09:13:13.556Z,99986.31
2023-04-15T09:15:40.074Z,99985.50
2023-04-15T09:18:07.028Z,99996.38
2023-04-15T09:20:42.279Z,99993.09
2023-04-15T09:23:14.167Z,99991.16
2023-04-15T09:25:44.835Z,99994.59
2023-04-15T09:28:11.453Z,99999.16
2023-04-15T09:30:38.008Z,100000.63
2023-04-15T09:33:08.298Z,99998.97
2023-04-15T09:35:38.166Z,100005.44
2023-04-15T09:38:07.271Z,99994.56
2023-04-15T09:40:41.193Z,99998.06
2023-04-15T09:43:09.213Z,100000.00
2023-04-15T09:45:36.439Z,100002.34
2023-04-15T09:48:16.265Z,100016.66
2023-04-15T09:50:43.944Z,100010.38
2023-04-15T09:53:14.245Z,100007.47
2023-04-15T09:56:27.965Z,100002.69
2023-04-15T09:58:57.212Z,100007.88
2023-04-15T10:01:23.698Z,100007.50
2023-04-15T10:03:51.518Z,100009.25
2023-04-15T10:06:18.274Z,100016.16
2023-04-15T10:08:46.202Z,100010.25
2023-04-15T10:11:12.846Z,100016.75
2023-04-15T10:13:39.891Z,100010.44
2023-04-15T10:16:11.782Z,100018.44
2023-04-15T10:18:43.000Z,100018.69
2023-04-15T10:21:10.167Z,100019.00
2023-04-15T10:23:36.804Z,100022.09
2023-04-15T10:26:04.914Z,100021.13
2023-04-15T10:28:31.680Z,100017.81
2023-04-15T10:30:59.685Z,100022.56
2023-04-15T10:33:27.862Z,100026.38
2023-04-15T10:35:55.893Z,100030.25
2023-04-15T10:38:36.658Z,100031.72
2023-04-15T10:41:17.962Z,100033.59
2023-04-15T10:43:53.617Z,100046.25
2023-04-15T10:46:23.642Z,100051.09
2023-04-15T10:48:52.332Z,100050.44
2023-04-15T10:51:32.242Z,100050.25
2023-04-15T10:54:02.119Z,100050.69
2023-04-15T10:56:30.154Z,100048.47
2023-04-15T10:58:59.180Z,100058.59
2023-04-15T11:01:56.598Z,100053.91
2023-04-15T11:04:58.713Z,100053.97
2023-04-15T11:07:52.933Z,100061.44
2023-04-15T11:10:25.565Z,100073.25
2023-04-15T11:12:54.166Z,100070.38
2023-04-15T11:15:30.301Z,100078.78
2023-04-15T11:17:58.150Z,100089.41
2023-04-15T11:20:25.206Z,100087.22
2023-04-15T11:23:13.006Z,100093.03
2023-04-15T11:25:40.901Z,100093.50
2023-04-15T11:28:10.170Z,100095.66
2023-04-15T11:30:37.938Z,100098.19
2023-04-15T11:33:14.579Z,100094.81
2023-04-15T11:35:42.244Z,100106.69
2023-04-15T11:38:11.774Z,100109.44
2023-04-15T11:40:38.853Z,100108.59
2023-04-15T11:43:09.015Z,100104.53
2023-04-15T11:45:36.970Z,100101.63
2023-04-15T11:48:11.811Z,100111.69
2023-04-15T11:50:42.306Z,100105.31
2023-04-15T11:53:13.362Z,100111.25
2023-04-15T11:55:48.628Z,100110.53
2023-04-15T11:58:23.796Z,100107.44
2023-04-15T12:00:54.089Z,100114.47
2023-04-15T12:03:43.708Z,100117.75
2023-04-15T12:06:19.709Z,100110.94
2023-04-15T12:09:21.730Z,100120.31
2023-04-15T12:11:50.005Z,100116.66
2023-04-15T12:14:25.320Z,100116.44
2023-04-15T12:16:58.428Z,100122.38
2023-04-15T12:19:28.533Z,100125.81
2023-04-15T12:22:06.614Z,100128.28
2023-04-15T12:24:34.406Z,100128.25
2023-04-15T12:27:14.522Z,100131.63
2023-04-15T12:29:43.129Z,100136.75
2023-04-15T12:32:10.744Z,100136.94
2023-04-15T12:34:41.678Z,100136.66
2023-04-15T12:37:10.778Z,100134.63
2023-04-15T12:39:39.845Z,100151.91
2023-04-15T12:42:07.047Z,100140.88
2023-04-15T12:44:33.960Z,100142.75
2023-04-15T12:47:00.722Z,100147.78
2023-04-15T12:49:27.791Z,100144.44
2023-04-15T12:51:56.987Z,100142.34
2023-04-15T12:54:23.659Z,100150.47
2023-04-15T12:56:51.413Z,100148.06
2023-04-15T12:59:18.710Z,100147.94
2023-04-15T13:01:46.630Z,100151.41
2023-04-15T13:04:13.401Z,100150.72
2023-04-15T13:06:39.975Z,100145.22
2023-04-15T13:09:06.848Z,100162.16
2023-04-15T13:11:34.246Z,100153.78
2023-04-15T13:14:02.203Z,100148.56
2023-04-15T13:16:28.960Z,100158.75
2023-04-15T13:18:55.493Z,100158.34
2023-04-15T13:21:22.050Z,100158.16
2023-04-15T13:23:50.838Z,100167.63
2023-04-15T13:26:18.526Z,100170.50
2023-04-15T13:28:45.703Z,100164.38
2023-04-15T13:31:12.476Z,100172.22
2023-04-15T13:33:38.971Z,100167.88
2023-04-15T13:36:05.818Z,100174.59
2023-04-15T13:38:32.670Z,100177.75
2023-04-15T13:40:59.170Z,100180.41
2023-04-15T13:43:26.362Z,100179.97
2023-04-15T13:45:52.835Z,100184.06
2023-04-15T13:48:19.315Z,100174.50
2023-04-15T13:50:45.838Z,100178.38
2023-04-15T13:53:12.983Z,100183.22
2023-04-15T13:55:41.686Z,100184.31
2023-04-15T13:58:08.923Z,100193.72
2023-04-15T14:00:35.459Z,100189.84
2023-04-15T14:03:01.997Z,100185.66
2023-04-15T14:05:28.578Z,100193.25
2023-04-15T14:07:55.187Z,100203.34
2023-04-15T14:10:21.603Z,100203.56
2023-04-15T14:12:47.986Z,100205.69
2023-04-15T14:15:14.435Z,100191.00
2023-04-15T14:17:42.324Z,100200.19
2023-04-15T14:20:09.528Z,100200.78
2023-04-15T14:22:36.056Z,100211.91
2023-04-15T14:25:02.731Z,100210.47
2023-04-15T14:27:29.207Z,100205.72
2023-04-15T14:29:55.709Z,100215.06
2023-04-15T14:32:22.171Z,100211.53
2023-04-15T14:34:48.606Z,100217.72
2023-04-15T14:37:15.091Z,100227.81
2023-04-15T14:39:41.543Z,100218.97
2023-04-15T14:42:07.993Z,100227.09
2023-04-15T14:44:34.451Z,100229.63
2023-04-15T14:47:00.917Z,100228.38
2023-04-15T14:49:27.527Z,100233.03
2023-04-15T14:51:53.925Z,100233.25
2023-04-15T14:54:21.930Z,100237.63
2023-04-15T14:56:48.772Z,100239.66
2023-04-15T14:59:15.319Z,100237.97
2023-04-15T15:01:41.883Z,100243.34
2023-04-15T15:04:10.332Z,100256.38
2023-04-15T15:06:36.963Z,100252.66
2023-04-15T15:09:03.914Z,100253.00
2023-04-15T15:11:30.726Z,100259.78
2023-04-15T15:13:58.309Z,100266.94
2023-04-15T15:16:25.615Z,100270.38
2023-04-15T15:18:52.165Z,100278.09
2023-04-15T15:21:18.741Z,100273.16
2023-04-15T15:23:45.908Z,100284.78
2023-04-15T15:26:12.594Z,100280.66
2023-04-15T15:28:39.301Z,100296.97
2023-04-15T15:31:05.931Z,100299.78
2023-04-15T15:33:32.746Z,100301.09
2023-04-15T15:35:59.431Z,100302.72
2023-04-15T15:38:26.283Z,100303.72
2023-04-15T15:40:52.738Z,100307.50
2023-04-15T15:43:19.207Z,100308.97
2023-04-15T15:45:45.736Z,100311.94
2023-04-15T15:48:12.309Z,100314.28
2023-04-15T15:50:38.903Z,100314.56
2023-04-15T15:53:05.367Z,100315.25
2023-04-15T15:55:31.808Z,100317.09
2023-04-15T15:57:58.268Z,100320.56
2023-04-15T16:00:24.837Z,100315.88
2023-04-15T16:03:06.953Z,100318.53
2023-04-15T16:05:35.146Z,100314.25
2023-04-15T16:08:01.847Z,100314.91
2023-04-15T16:10:28.866Z,100326.84
2023-04-15T16:12:55.700Z,100320.41
2023-04-15T16:15:23.363Z,100332.97
2023-04-15T16:17:49.894Z,100331.28
2023-04-15T16:20:16.657Z,100338.00
2023-04-15T16:22:43.217Z,100337.13
2023-04-15T16:25:09.791Z,100336.44
2023-04-15T16:27:50.328Z,100348.47
2023-04-15T16:30:23.089Z,100338.94
2023-04-15T16:32:49.552Z,100348.44
2023-04-15T16:35:16.764Z,100340.44
2023-04-15T16:37:43.246Z,100346.84
2023-04-15T16:40:10.155Z,100352.13
2023-04-15T16:42:36.947Z,100356.50
2023-04-15T16:45:03.576Z,100352.44
2023-04-15T16:47:30.047Z,100347.41
2023-04-15T16:49:56.411Z,100356.84
2023-04-15T16:52:22.811Z,100370.16
2023-04-15T16:54:49.188Z,100370.59
2023-04-15T16:57:15.808Z,100366.50
2023-04-15T16:59:42.245Z,100376.44
2023-04-15T17:02:12.311Z,100384.38
2023-04-15T17:04:39.716Z,100378.09
2023-04-15T17:07:06.705Z,100380.94
2023-04-15T17:09:33.116Z,100382.16
2023-04-15T17:11:59.647Z,100385.03
2023-04-15T17:14:28.600Z,100397.66
2023-04-15T17:16:55.648Z,100387.88
2023-04-15T17:19:22.160Z,100394.19
2023-04-15T17:21:48.635Z,100396.13
2023-04-15T17:24:15.049Z,100402.13
2023-04-15T17:26:41.477Z,100402.56
2023-04-15T17:29:07.937Z,100401.56
2023-04-15T17:31:34.480Z,100401.97
2023-04-15T17:34:08.708Z,100402.00
2023-04-15T17:36:37.423Z,100408.72
2023-04-15T17:39:04.565Z,100416.03
2023-04-15T17:41:31.222Z,100416.03
2023-04-15T17:43:57.629Z,100419.13
2023-04-15T17:46:24.102Z,100422.38
2023-04-15T17:48:50.559Z,100421.94
2023-04-15T17:51:17.132Z,100421.34
2023-04-15T17:53:43.539Z,100430.78
2023-04-15T17:56:09.969Z,100429.53
2023-04-15T17:58:36.413Z,100436.72
2023-04-15T18:01:02.872Z,100441.13
2023-04-15T18:03:29.515Z,100440.84
2023-04-15T18:05:56.456Z,100441.66
2023-04-15T18:08:23.055Z,100443.94
2023-04-15T18:10:49.567Z,100461.81
2023-04-15T18:13:16.202Z,100466.16
2023-04-15T18:15:44.602Z,100468.94
2023-04-15T18:18:12.713Z,100472.38
2023-04-15T18:20:39.126Z,100472.69
2023-04-15T18:23:05.630Z,100477.25
2023-04-15T18:25:33.851Z,100482.50
2023-04-15T18:28:00.448Z,100488.34
2023-04-15T18:30:26.881Z,100498.78
2023-04-15T18:32:53.357Z,100500.28
2023-04-15T18:35:20.691Z,100492.34
2023-04-15T18:37:47.187Z,100503.97
2023-04-15T18:40:15.778Z,100511.13
2023-04-15T18:42:42.168Z,100501.53
2023-04-15T18:45:08.906Z,100504.53
2023-04-15T18:47:35.379Z,100517.41
2023-04-15T18:50:01.914Z,100520.84
2023-04-15T18:52:29.374Z,100517.22
2023-04-15T18:54:55.809Z,100512.97
2023-04-15T18:57:23.683Z,100521.09
2023-04-15T18:59:55.125Z,100522.13
2023-04-15T19:02:21.635Z,100522.63
2023-04-15T19:04:48.134Z,100525.81
2023-04-15T19:07:14.794Z,100536.81
2023-04-15T19:09:41.843Z,100542.63
2023-04-15T19:12:08.488Z,100532.50
2023-04-15T19:14:35.005Z,100539.16
2023-04-15T19:17:01.523Z,100540.50
2023-04-15T19:19:29.313Z,100546.44
2023-04-15T19:21:55.922Z,100549.94
2023-04-15T19:24:22.417Z,100561.19
2023-04-15T19:26:52.693Z,100547.09
2023-04-15T19:29:19.170Z,100549.38
2023-04-15T19:31:45.637Z,100545.22
2023-04-15T19:34:12.063Z,100552.31
2023-04-15T19:36:38.694Z,100552.56
2023-04-15T19:39:06.329Z,100554.28
2023-04-15T19:41:32.989Z,100556.44
2023-04-15T19:44:00.119Z,100565.75
2023-04-15T19:46:27.023Z,100563.25
2023-04-15T19:48:54.848Z,100562.66
2023-04-15T19:51:21.259Z,100564.25
2023-04-15T19:53:49.533Z,100561.94
2023-04-15T19:56:16.408Z,100564.69
2023-04-15T19:58:46.412Z,100566.25
2023-04-15T20:01:13.040Z,100571.19
2023-04-15T20:03:39.677Z,100565.09
2023-04-15T20:06:06.161Z,100573.06
2023-04-15T20:08:32.566Z,100570.69
2023-04-15T20:10:58.986Z,100580.75
2023-04-15T20:13:25.417Z,100576.22
2023-04-15T20:15:51.879Z,100575.41
2023-04-15T20:18:18.369Z,100584.94
2023-04-15T20:20:44.848Z,100586.16
2023-04-15T20:23:11.257Z,100583.44
2023-04-15T20:25:37.694Z,100582.31
2023-04-15T20:28:04.145Z,100587.31
2023-04-15T20:30:30.728Z,100591.31
2023-04-15T20:32:57.356Z,100597.50
2023-04-15T20:35:25.032Z,100579.38
2023-04-15T20:37:51.434Z,100597.19
2023-04-15T20:40:17.896Z,100593.56
2023-04-15T20:42:44.382Z,100599.72
2023-04-15T20:45:11.313Z,100596.19
2023-04-15T20:47:37.836Z,100602.47
2023-04-15T20:50:04.706Z,100608.13
2023-04-15T20:52:31.314Z,100609.22
2023-04-15T20:54:57.741Z,100616.66
2023-04-15T20:57:24.663Z,100615.81
2023-04-15T20:59:51.289Z,100614.22
2023-04-15T21:02:18.068Z,100612.59
2023-04-15T21:04:47.000Z,100620.16
2023-04-15T21:07:13.392Z,100625.78
2023-04-15T21:09:41.422Z,100623.72
2023-04-15T21:12:08.011Z,100628.59
2023-04-15T21:14:35.836Z,100637.41
2023-04-15T21:17:09.237Z,100628.34
2023-04-15T21:19:37.441Z,100637.00
2023-04-15T21:22:03.913Z,100635.28
2023-04-15T21:24:30.622Z,100643.03
2023-04-15T21:26:57.223Z,100636.38
2023-04-15T21:29:24.220Z,100641.84
2023-04-15T21:31:50.784Z,100636.94
2023-04-15T21:34:17.522Z,100651.38
2023-04-15T21:36:43.949Z,100654.28
2023-04-15T21:39:10.414Z,100654.16
2023-04-15T21:41:37.068Z,100658.34
2023-04-15T21:44:04.084Z,100667.13
2023-04-15T21:46:33.333Z,100665.47
2023-04-15T21:49:02.219Z,100669.09
2023-04-15T21:51:28.705Z,100673.66
2023-04-15T21:53:55.909Z,100678.63
2023-04-15T21:56:24.139Z,100671.31
2023-04-15T21:58:51.284Z,100676.34
2023-04-15T22:01:17.779Z,100683.03
2023-04-15T22:03:44.465Z,100683.91
2023-04-15T22:06:13.520Z,100674.94
2023-04-15T22:08:55.214Z,100679.88
2023-04-15T22:11:27.259Z,100688.47
2023-04-15T22:13:54.347Z,100686.75
2023-04-15T22:16:21.128Z,100678.50
2023-04-15T22:18:47.636Z,100687.88
2023-04-15T22:21:14.278Z,100688.69
2023-04-15T22:23:40.822Z,100694.13
2023-04-15T22:26:07.386Z,100695.31
2023-04-15T22:28:34.013Z,100692.28
2023-04-15T22:31:00.584Z,100695.47
2023-04-15T22:33:27.078Z,100691.72
2023-04-15T22:35:53.479Z,100692.78
2023-04-15T22:38:19.910Z,100699.91
2023-04-15T22:40:46.830Z,100705.59
2023-04-15T22:43:13.296Z,100707.41
2023-04-15T22:45:39.712Z,100705.41
2023-04-15T22:48:06.308Z,100714.34
2023-04-15T22:50:32.786Z,100719.03
2023-04-15T22:52:59.217Z,100727.72
2023-04-15T22:55:25.615Z,100729.69
2023-04-15T22:57:52.696Z,100728.75
2023-04-15T23:00:19.187Z,100739.09
2023-04-15T23:02:45.749Z,100737.31
2023-04-15T23:05:12.640Z,100735.31
2023-04-15T23:07:39.979Z,100740.72
2023-04-15T23:10:07.960Z,100744.13
2023-04-15T23:12:34.814Z,100750.13
2023-04-15T23:15:01.420Z,100743.06
2023-04-15T23:17:27.932Z,100737.38
2023-04-15T23:19:54.352Z,100749.34
2023-04-15T23:22:20.840Z,100753.97
2023-04-15T23:24:47.328Z,100755.00
2023-04-15T23:27:13.770Z,100747.69
2023-04-15T23:29:40.445Z,100751.06
2023-04-15T23:32:06.983Z,100763.56
2023-04-15T23:34:33.477Z,100750.97
2023-04-15T23:36:59.967Z,100756.09
2023-04-15T23:39:26.486Z,100750.91
2023-04-15T23:41:53.384Z,100758.06
2023-04-15T23:44:19.976Z,100751.34
2023-04-15T23:46:46.504Z,100751.75
2023-04-15T23:49:13.080Z,100757.97
2023-04-15T23:51:39.509Z,100759.88
2023-04-15T23:54:05.937Z,100756.09
2023-04-15T23:56:35.208Z,100762.91
2023-04-15T23:59:01.617Z,100755.44
